Terminal Aerodrome Forecast
Issued by NWS

Current Version | Previous Version | Text Only | Print | Product List | Glossary On
Versions: 1 2 3 4 5 6 7 8 9 10 11 12 13 14 15 16 17
000
FTUS45 KTFX 270220 AAA
TAFBZN
TAF AMD
KBZN 270220Z 2702/2724 26008KT P6SM VCSH SCT025 OVC040
      TEMPO 2702/2704 BKN018
     FM270500 VRB05KT P6SM SCT050 BKN090
     FM270800 VRB03KT P6SM VCFG FEW015 SCT100
     FM271600 VRB03KT P6SM SCT200=

USA.gov is the U.S. government's official web portal to all federal, state and local government web resources and services.